TAF and METAR

Decoding for American and Canadian METARs and TAFs is not fully implemented.

Could not understand the following METAR

K0CO 221248Z AUTO 28008KT 10SM CLR M01/M10 A3049 RMK AO2 LTG DSNT SW
No TAF available for Empire
Empire in United States of America at 3807m

Latest 5 airports